sensor_id;sensor_type;location;lat;lon;timestamp;pressure;altitude;pressure_sealevel;temperature;humidity
61682;BME280;47577;43.610;25.010;2023-04-09T00:00:38;100934.09;;;6.80;84.05
61682;BME280;47577;43.610;25.010;2023-04-09T00:03:03;100935.84;;;6.86;84.95
61682;BME280;47577;43.610;25.010;2023-04-09T00:05:29;100934.06;;;6.85;84.33
61682;BME280;47577;43.610;25.010;2023-04-09T00:07:56;100927.06;;;6.81;83.86
61682;BME280;47577;43.610;25.010;2023-04-09T00:10:22;100949.03;;;6.89;84.06
61682;BME280;47577;43.610;25.010;2023-04-09T00:12:47;100937.59;;;6.85;83.77
61682;BME280;47577;43.610;25.010;2023-04-09T00:15:13;100943.81;;;6.78;84.20
61682;BME280;47577;43.610;25.010;2023-04-09T00:17:39;100946.47;;;6.78;84.25
61682;BME280;47577;43.610;25.010;2023-04-09T00:20:05;100932.44;;;6.71;84.41
61682;BME280;47577;43.610;25.010;2023-04-09T00:22:32;100943.03;;;6.70;84.94
61682;BME280;47577;43.610;25.010;2023-04-09T00:24:57;100941.38;;;6.59;84.64
61682;BME280;47577;43.610;25.010;2023-04-09T00:27:23;100951.88;;;6.66;85.28
61682;BME280;47577;43.610;25.010;2023-04-09T00:29:48;100954.56;;;6.59;85.73
61682;BME280;47577;43.610;25.010;2023-04-09T00:32:14;100959.88;;;6.56;86.53
61682;BME280;47577;43.610;25.010;2023-04-09T00:34:40;100956.25;;;6.68;87.12
61682;BME280;47577;43.610;25.010;2023-04-09T00:37:05;100950.91;;;6.74;85.75
61682;BME280;47577;43.610;25.010;2023-04-09T00:39:31;100957.91;;;6.77;86.52
61682;BME280;47577;43.610;25.010;2023-04-09T00:41:58;100959.63;;;6.84;85.67
61682;BME280;47577;43.610;25.010;2023-04-09T00:44:24;100938.53;;;6.78;85.44
61682;BME280;47577;43.610;25.010;2023-04-09T00:46:51;100954.34;;;6.86;84.30
61682;BME280;47577;43.610;25.010;2023-04-09T00:49:16;100945.56;;;6.84;83.83
61682;BME280;47577;43.610;25.010;2023-04-09T00:51:43;100955.34;;;6.72;84.40
61682;BME280;47577;43.610;25.010;2023-04-09T00:54:10;100958.00;;;6.71;84.31
61682;BME280;47577;43.610;25.010;2023-04-09T00:56:36;100954.59;;;6.58;84.65
61682;BME280;47577;43.610;25.010;2023-04-09T00:59:02;100946.69;;;6.56;84.64
61682;BME280;47577;43.610;25.010;2023-04-09T01:01:28;100948.41;;;6.59;84.97
61682;BME280;47577;43.610;25.010;2023-04-09T01:03:53;100941.41;;;6.55;84.27
61682;BME280;47577;43.610;25.010;2023-04-09T01:06:35;100955.41;;;6.63;82.63
61682;BME280;47577;43.610;25.010;2023-04-09T01:09:17;100950.19;;;6.55;82.08
61682;BME280;47577;43.610;25.010;2023-04-09T01:17:40;100957.69;;;5.85;86.36
61682;BME280;47577;43.610;25.010;2023-04-09T01:20:17;100959.38;;;5.96;84.55
61682;BME280;47577;43.610;25.010;2023-04-09T01:22:58;100955.03;;;5.98;82.46
61682;BME280;47577;43.610;25.010;2023-04-09T01:26:01;100943.56;;;5.99;81.76
61682;BME280;47577;43.610;25.010;2023-04-09T01:28:42;100941.84;;;5.87;82.09
61682;BME280;47577;43.610;25.010;2023-04-09T01:31:20;100946.28;;;5.80;81.26
61682;BME280;47577;43.610;25.010;2023-04-09T01:33:50;100948.13;;;5.61;81.41
61682;BME280;47577;43.610;25.010;2023-04-09T01:36:17;100943.81;;;5.43;84.01
61682;BME280;47577;43.610;25.010;2023-04-09T01:38:44;100947.41;;;5.22;85.98
61682;BME280;47577;43.610;25.010;2023-04-09T01:41:19;100946.47;;;5.36;84.40
61682;BME280;47577;43.610;25.010;2023-04-09T01:43:46;100936.84;;;5.33;83.89
61682;BME280;47577;43.610;25.010;2023-04-09T01:46:14;100943.00;;;5.30;82.41
61682;BME280;47577;43.610;25.010;2023-04-09T01:48:41;100938.66;;;5.14;82.81
61682;BME280;47577;43.610;25.010;2023-04-09T01:51:08;100931.69;;;4.90;84.36
61682;BME280;47577;43.610;25.010;2023-04-09T01:53:35;100918.50;;;4.82;84.89
61682;BME280;47577;43.610;25.010;2023-04-09T01:56:01;100937.81;;;4.92;85.00
61682;BME280;47577;43.610;25.010;2023-04-09T01:58:27;100929.91;;;4.86;84.64
61682;BME280;47577;43.610;25.010;2023-04-09T02:00:59;100933.44;;;4.83;84.62
61682;BME280;47577;43.610;25.010;2023-04-09T02:03:56;100939.63;;;4.71;85.21
61682;BME280;47577;43.610;25.010;2023-04-09T02:06:39;100944.00;;;4.68;85.68
61682;BME280;47577;43.610;25.010;2023-04-09T02:09:07;100945.75;;;4.64;85.87
61682;BME280;47577;43.610;25.010;2023-04-09T02:11:36;100943.16;;;4.49;86.28
61682;BME280;47577;43.610;25.010;2023-04-09T02:14:03;100918.56;;;4.45;86.23
61682;BME280;47577;43.610;25.010;2023-04-09T02:16:30;100929.09;;;4.50;82.95
61682;BME280;47577;43.610;25.010;2023-04-09T02:18:56;100940.50;;;4.43;84.32
61682;BME280;47577;43.610;25.010;2023-04-09T02:21:22;100932.59;;;4.39;84.43
61682;BME280;47577;43.610;25.010;2023-04-09T02:23:49;100944.88;;;4.45;86.20
61682;BME280;47577;43.610;25.010;2023-04-09T02:26:15;100929.97;;;4.35;87.53
61682;BME280;47577;43.610;25.010;2023-04-09T02:28:40;100938.75;;;4.49;87.49
61682;BME280;47577;43.610;25.010;2023-04-09T02:31:06;100942.25;;;4.42;86.68
61682;BME280;47577;43.610;25.010;2023-04-09T02:33:32;100945.78;;;4.43;85.71
61682;BME280;47577;43.610;25.010;2023-04-09T02:35:58;100944.88;;;4.25;87.36
61682;BME280;47577;43.610;25.010;2023-04-09T02:38:23;100946.63;;;4.38;87.41
61682;BME280;47577;43.610;25.010;2023-04-09T02:40:49;100944.88;;;4.40;85.03
61682;BME280;47577;43.610;25.010;2023-04-09T02:43:15;100944.88;;;4.45;85.29
61682;BME280;47577;43.610;25.010;2023-04-09T02:45:40;100939.63;;;4.33;84.32
61682;BME280;47577;43.610;25.010;2023-04-09T02:48:06;100951.03;;;4.29;85.73
61682;BME280;47577;43.610;25.010;2023-04-09T02:50:32;100944.88;;;4.22;85.75
61682;BME280;47577;43.610;25.010;2023-04-09T02:52:57;100950.13;;;4.05;84.18
61682;BME280;47577;43.610;25.010;2023-04-09T02:55:23;100962.41;;;4.12;84.68
61682;BME280;47577;43.610;25.010;2023-04-09T02:57:48;100959.78;;;3.97;84.30
61682;BME280;47577;43.610;25.010;2023-04-09T03:00:14;100961.50;;;3.96;84.64
61682;BME280;47577;43.610;25.010;2023-04-09T03:02:40;100959.75;;;3.92;84.88
61682;BME280;47577;43.610;25.010;2023-04-09T03:05:06;100964.09;;;3.89;84.29
61682;BME280;47577;43.610;25.010;2023-04-09T03:07:32;100962.34;;;3.83;84.45
61682;BME280;47577;43.610;25.010;2023-04-09T03:09:57;100956.16;;;3.69;83.48
61682;BME280;47577;43.610;25.010;2023-04-09T03:12:23;100968.44;;;3.66;85.04
61682;BME280;47577;43.610;25.010;2023-04-09T03:14:49;100969.28;;;3.59;84.98
61682;BME280;47577;43.610;25.010;2023-04-09T03:17:14;100972.78;;;3.54;85.29
61682;BME280;47577;43.610;25.010;2023-04-09T03:19:40;100957.81;;;3.46;85.78
61682;BME280;47577;43.610;25.010;2023-04-09T03:22:06;100975.34;;;3.43;84.30
61682;BME280;47577;43.610;25.010;2023-04-09T03:24:32;100972.72;;;3.41;84.42
61682;BME280;47577;43.610;25.010;2023-04-09T03:26:58;100969.22;;;3.42;85.34
61682;BME280;47577;43.610;25.010;2023-04-09T03:29:23;100973.53;;;3.29;85.45
61682;BME280;47577;43.610;25.010;2023-04-09T03:31:49;100970.69;;;2.94;87.20
61682;BME280;47577;43.610;25.010;2023-04-09T03:34:15;100954.97;;;3.00;87.40
61682;BME280;47577;43.610;25.010;2023-04-09T03:36:40;100963.84;;;3.16;86.14
61682;BME280;47577;43.610;25.010;2023-04-09T03:39:06;100968.25;;;3.25;84.73
61682;BME280;47577;43.610;25.010;2023-04-09T03:41:32;100965.63;;;3.28;84.06
61682;BME280;47577;43.610;25.010;2023-04-09T03:43:57;100952.44;;;3.20;85.04
61682;BME280;47577;43.610;25.010;2023-04-09T03:46:23;100972.59;;;3.20;84.68
61682;BME280;47577;43.610;25.010;2023-04-09T03:48:49;100970.81;;;3.09;83.18
61682;BME280;47577;43.610;25.010;2023-04-09T03:51:16;100966.41;;;3.10;84.50
61682;BME280;47577;43.610;25.010;2023-04-09T03:53:42;100968.09;;;2.99;84.53
61682;BME280;47577;43.610;25.010;2023-04-09T03:56:09;100975.09;;;3.01;85.59
61682;BME280;47577;43.610;25.010;2023-04-09T03:58:35;100980.34;;;2.97;85.36
61682;BME280;47577;43.610;25.010;2023-04-09T04:01:01;100963.59;;;2.81;85.69
61682;BME280;47577;43.610;25.010;2023-04-09T04:03:27;100966.28;;;2.87;86.44
61682;BME280;47577;43.610;25.010;2023-04-09T04:05:52;100972.50;;;2.98;85.91
61682;BME280;47577;43.610;25.010;2023-04-09T04:08:18;100963.69;;;2.96;85.09
61682;BME280;47577;43.610;25.010;2023-04-09T04:10:44;100960.25;;;3.05;85.90
61682;BME280;47577;43.610;25.010;2023-04-09T04:13:10;100968.19;;;3.11;85.57
61682;BME280;47577;43.610;25.010;2023-04-09T04:15:39;100968.19;;;3.14;86.08
61682;BME280;47577;43.610;25.010;2023-04-09T04:18:09;100961.16;;;3.08;86.83
61682;BME280;47577;43.610;25.010;2023-04-09T04:20:35;100962.06;;;3.15;86.95
61682;BME280;47577;43.610;25.010;2023-04-09T04:23:02;100964.75;;;3.24;87.78
61682;BME280;47577;43.610;25.010;2023-04-09T04:25:28;100951.63;;;3.24;87.19
61682;BME280;47577;43.610;25.010;2023-04-09T04:27:55;100956.91;;;3.32;86.40
61682;BME280;47577;43.610;25.010;2023-04-09T04:30:21;100970.06;;;3.37;86.52
61682;BME280;47577;43.610;25.010;2023-04-09T04:32:47;100966.56;;;3.36;86.64
61682;BME280;47577;43.610;25.010;2023-04-09T04:35:13;100954.28;;;3.35;88.40
61682;BME280;47577;43.610;25.010;2023-04-09T04:37:38;100970.16;;;3.57;87.92
61682;BME280;47577;43.610;25.010;2023-04-09T04:40:06;100969.31;;;3.67;88.36
61682;BME280;47577;43.610;25.010;2023-04-09T04:42:33;100967.59;;;3.78;87.67
61682;BME280;47577;43.610;25.010;2023-04-09T04:44:58;100981.72;;;4.03;87.13
61682;BME280;47577;43.610;25.010;2023-04-09T04:47:24;100980.81;;;4.01;86.56
61682;BME280;47577;43.610;25.010;2023-04-09T04:49:50;100969.41;;;4.01;88.24
61682;BME280;47577;43.610;25.010;2023-04-09T04:52:16;100972.09;;;4.16;86.83
61682;BME280;47577;43.610;25.010;2023-04-09T04:54:42;100977.34;;;4.27;88.32
61682;BME280;47577;43.610;25.010;2023-04-09T04:57:08;100964.19;;;4.36;88.03
61682;BME280;47577;43.610;25.010;2023-04-09T04:59:37;100970.38;;;4.62;86.68
61682;BME280;47577;43.610;25.010;2023-04-09T05:02:04;100981.75;;;4.82;84.89
61682;BME280;47577;43.610;25.010;2023-04-09T05:04:30;100986.13;;;5.03;85.89
61682;BME280;47577;43.610;25.010;2023-04-09T05:06:56;100984.31;;;5.21;83.43
61682;BME280;47577;43.610;25.010;2023-04-09T05:09:21;100973.78;;;5.25;84.87
61682;BME280;47577;43.610;25.010;2023-04-09T05:11:47;100974.59;;;5.41;84.88
61682;BME280;47577;43.610;25.010;2023-04-09T05:14:12;100991.22;;;5.63;85.01
61682;BME280;47577;43.610;25.010;2023-04-09T05:16:38;100987.69;;;5.72;84.83
61682;BME280;47577;43.610;25.010;2023-04-09T05:19:03;100990.19;;;5.94;85.09
61682;BME280;47577;43.610;25.010;2023-04-09T05:21:29;100989.25;;;6.12;85.31
61682;BME280;47577;43.610;25.010;2023-04-09T05:23:56;100972.47;;;6.22;85.51
61682;BME280;47577;43.610;25.010;2023-04-09T05:26:22;100973.22;;;6.38;85.83
61682;BME280;47577;43.610;25.010;2023-04-09T05:28:48;100984.56;;;6.52;85.77
61682;BME280;47577;43.610;25.010;2023-04-09T05:31:15;100986.19;;;6.69;85.49
61682;BME280;47577;43.610;25.010;2023-04-09T05:33:41;100976.47;;;6.74;86.07
61682;BME280;47577;43.610;25.010;2023-04-09T05:36:07;100980.75;;;6.87;85.98
61682;BME280;47577;43.610;25.010;2023-04-09T05:38:33;100980.72;;;6.92;86.10
61682;BME280;47577;43.610;25.010;2023-04-09T05:40:58;100986.78;;;7.02;86.00
61682;BME280;47577;43.610;25.010;2023-04-09T05:43:25;100981.38;;;7.12;85.39
61682;BME280;47577;43.610;25.010;2023-04-09T05:45:51;100981.22;;;7.29;84.31
61682;BME280;47577;43.610;25.010;2023-04-09T05:48:16;100971.53;;;7.25;84.38
61682;BME280;47577;43.610;25.010;2023-04-09T05:50:50;100974.06;;;7.38;85.48
61682;BME280;47577;43.610;25.010;2023-04-09T05:53:17;100981.16;;;7.36;85.31
61682;BME280;47577;43.610;25.010;2023-04-09T05:55:44;100980.19;;;7.40;83.93
61682;BME280;47577;43.610;25.010;2023-04-09T05:58:10;100989.69;;;7.58;84.57
61682;BME280;47577;43.610;25.010;2023-04-09T06:00:36;100967.72;;;7.53;82.64
61682;BME280;47577;43.610;25.010;2023-04-09T06:03:02;100972.94;;;7.59;83.34
61682;BME280;47577;43.610;25.010;2023-04-09T06:05:28;100980.66;;;7.74;82.86
61682;BME280;47577;43.610;25.010;2023-04-09T06:07:54;100980.66;;;7.76;83.20
61682;BME280;47577;43.610;25.010;2023-04-09T06:10:20;100982.34;;;7.83;82.46
61682;BME280;47577;43.610;25.010;2023-04-09T06:12:46;100972.59;;;7.85;82.49
61682;BME280;47577;43.610;25.010;2023-04-09T06:15:11;100971.66;;;7.89;82.98
61682;BME280;47577;43.610;25.010;2023-04-09T06:17:37;100974.09;;;8.04;82.57
61682;BME280;47577;43.610;25.010;2023-04-09T06:20:03;100980.03;;;8.22;80.95
61682;BME280;47577;43.610;25.010;2023-04-09T06:22:29;100972.81;;;8.32;80.65
61682;BME280;47577;43.610;25.010;2023-04-09T06:24:55;100973.56;;;8.40;81.72
61682;BME280;47577;43.610;25.010;2023-04-09T06:27:21;100983.94;;;8.57;82.54
61682;BME280;47577;43.610;25.010;2023-04-09T06:29:47;100989.97;;;8.67;82.80
61682;BME280;47577;43.610;25.010;2023-04-09T06:32:12;100977.53;;;8.70;81.68
61682;BME280;47577;43.610;25.010;2023-04-09T06:34:38;100987.03;;;8.82;81.49
61682;BME280;47577;43.610;25.010;2023-04-09T06:37:04;100982.56;;;8.84;81.81
61682;BME280;47577;43.610;25.010;2023-04-09T06:39:29;100977.88;;;9.00;82.23
61682;BME280;47577;43.610;25.010;2023-04-09T06:41:55;100993.63;;;9.09;81.40
61682;BME280;47577;43.610;25.010;2023-04-09T06:44:21;100981.34;;;9.04;81.23
61682;BME280;47577;43.610;25.010;2023-04-09T06:46:48;100982.91;;;9.15;79.79
61682;BME280;47577;43.610;25.010;2023-04-09T06:49:14;100993.16;;;9.34;81.75
61682;BME280;47577;43.610;25.010;2023-04-09T06:51:39;100983.19;;;9.47;81.16
61682;BME280;47577;43.610;25.010;2023-04-09T06:54:05;100989.22;;;9.55;79.53
61682;BME280;47577;43.610;25.010;2023-04-09T06:56:30;100976.00;;;9.52;79.68
61682;BME280;47577;43.610;25.010;2023-04-09T06:58:57;100979.50;;;9.56;80.85
61682;BME280;47577;43.610;25.010;2023-04-09T07:01:23;100984.56;;;9.66;79.97
61682;BME280;47577;43.610;25.010;2023-04-09T07:03:49;100983.53;;;9.75;80.03
61682;BME280;47577;43.610;25.010;2023-04-09T07:06:15;100990.31;;;9.88;78.20
61682;BME280;47577;43.610;25.010;2023-04-09T07:08:41;100981.50;;;9.86;79.74
61682;BME280;47577;43.610;25.010;2023-04-09T07:11:06;100980.38;;;9.97;79.30
61682;BME280;47577;43.610;25.010;2023-04-09T07:13:32;100986.47;;;10.02;77.84
61682;BME280;47577;43.610;25.010;2023-04-09T07:15:59;100984.72;;;10.01;78.00
61682;BME280;47577;43.610;25.010;2023-04-09T07:18:26;100992.44;;;10.12;76.70
61682;BME280;47577;43.610;25.010;2023-04-09T07:20:51;100995.97;;;10.12;76.79
61682;BME280;47577;43.610;25.010;2023-04-09T07:23:18;100987.19;;;10.09;76.83
61682;BME280;47577;43.610;25.010;2023-04-09T07:25:43;100995.84;;;10.18;76.41
61682;BME280;47577;43.610;25.010;2023-04-09T07:28:09;100990.34;;;10.26;75.96
61682;BME280;47577;43.610;25.010;2023-04-09T07:30:36;100993.00;;;10.26;76.58
61682;BME280;47577;43.610;25.010;2023-04-09T07:33:02;100985.72;;;10.36;75.13
61682;BME280;47577;43.610;25.010;2023-04-09T07:35:27;100995.25;;;10.45;76.67
61682;BME280;47577;43.610;25.010;2023-04-09T07:37:53;100995.19;;;10.48;76.95
61682;BME280;47577;43.610;25.010;2023-04-09T07:40:19;101005.78;;;10.49;74.94
61682;BME280;47577;43.610;25.010;2023-04-09T07:42:44;100992.34;;;10.55;75.90
61682;BME280;47577;43.610;25.010;2023-04-09T07:45:10;100999.41;;;10.58;75.44
61682;BME280;47577;43.610;25.010;2023-04-09T07:47:37;101001.78;;;10.69;77.94
61682;BME280;47577;43.610;25.010;2023-04-09T07:50:05;101004.97;;;10.83;77.07
61682;BME280;47577;43.610;25.010;2023-04-09T07:52:31;100996.16;;;10.81;74.98
61682;BME280;47577;43.610;25.010;2023-04-09T07:54:57;101000.16;;;10.97;75.68
61682;BME280;47577;43.610;25.010;2023-04-09T07:57:22;100993.94;;;10.98;75.92
61682;BME280;47577;43.610;25.010;2023-04-09T07:59:48;101003.19;;;11.18;76.03
61682;BME280;47577;43.610;25.010;2023-04-09T08:02:14;101005.78;;;11.21;72.55
61682;BME280;47577;43.610;25.010;2023-04-09T08:04:39;101002.19;;;11.22;73.70
61682;BME280;47577;43.610;25.010;2023-04-09T08:07:05;101020.31;;;11.41;73.13
61682;BME280;47577;43.610;25.010;2023-04-09T08:09:32;100999.97;;;11.38;72.56
61682;BME280;47577;43.610;25.010;2023-04-09T08:11:57;101006.66;;;11.53;74.48
61682;BME280;47577;43.610;25.010;2023-04-09T08:14:23;101015.03;;;11.70;73.87
61682;BME280;47577;43.610;25.010;2023-04-09T08:16:48;101018.88;;;11.93;73.01
61682;BME280;47577;43.610;25.010;2023-04-09T08:19:15;101023.97;;;12.01;71.34
61682;BME280;47577;43.610;25.010;2023-04-09T08:21:41;101024.78;;;12.03;68.08
61682;BME280;47577;43.610;25.010;2023-04-09T08:24:08;101020.28;;;12.05;68.05
61682;BME280;47577;43.610;25.010;2023-04-09T08:26:36;101011.72;;;11.94;70.08
61682;BME280;47577;43.610;25.010;2023-04-09T08:29:02;101006.38;;;12.25;69.71
61682;BME280;47577;43.610;25.010;2023-04-09T08:31:27;101015.09;;;12.30;66.59
61682;BME280;47577;43.610;25.010;2023-04-09T08:33:53;101011.47;;;12.33;69.23
61682;BME280;47577;43.610;25.010;2023-04-09T08:36:21;101020.41;;;12.30;67.46
61682;BME280;47577;43.610;25.010;2023-04-09T08:38:47;101025.84;;;12.27;65.56
61682;BME280;47577;43.610;25.010;2023-04-09T08:41:18;101018.16;;;12.46;67.74
61682;BME280;47577;43.610;25.010;2023-04-09T08:43:45;101027.69;;;12.53;65.66
61682;BME280;47577;43.610;25.010;2023-04-09T08:46:12;101018.38;;;12.67;64.78
61682;BME280;47577;43.610;25.010;2023-04-09T08:48:42;101016.72;;;12.89;65.40
61682;BME280;47577;43.610;25.010;2023-04-09T08:51:15;101012.06;;;12.96;62.99
61682;BME280;47577;43.610;25.010;2023-04-09T08:53:46;101017.38;;;12.97;64.50
61682;BME280;47577;43.610;25.010;2023-04-09T08:56:13;101009.13;;;13.04;64.23
61682;BME280;47577;43.610;25.010;2023-04-09T08:58:42;101022.75;;;13.21;62.81
61682;BME280;47577;43.610;25.010;2023-04-09T09:01:28;101020.31;;;13.15;62.97
61682;BME280;47577;43.610;25.010;2023-04-09T09:04:05;101022.06;;;13.16;62.41
61682;BME280;47577;43.610;25.010;2023-04-09T09:06:33;101017.06;;;13.32;60.35
61682;BME280;47577;43.610;25.010;2023-04-09T09:09:02;101015.41;;;13.03;58.87
61682;BME280;47577;43.610;25.010;2023-04-09T09:11:29;101017.41;;;13.21;62.66
61682;BME280;47577;43.610;25.010;2023-04-09T09:14:00;101017.16;;;13.29;61.23
61682;BME280;47577;43.610;25.010;2023-04-09T09:16:26;101014.81;;;13.46;61.07
61682;BME280;47577;43.610;25.010;2023-04-09T09:18:52;101013.84;;;13.47;59.66
61682;BME280;47577;43.610;25.010;2023-04-09T09:21:17;101017.00;;;13.59;61.12
61682;BME280;47577;43.610;25.010;2023-04-09T09:23:44;101013.41;;;13.60;58.92
61682;BME280;47577;43.610;25.010;2023-04-09T09:26:17;101017.38;;;13.73;59.49
61682;BME280;47577;43.610;25.010;2023-04-09T09:28:44;101011.81;;;13.79;60.41
61682;BME280;47577;43.610;25.010;2023-04-09T09:31:11;101017.44;;;13.95;59.48
61682;BME280;47577;43.610;25.010;2023-04-09T09:33:38;101009.72;;;13.87;58.07
61682;BME280;47577;43.610;25.010;2023-04-09T09:36:04;101010.88;;;14.04;57.96
61682;BME280;47577;43.610;25.010;2023-04-09T09:38:30;101014.38;;;13.82;58.44
61682;BME280;47577;43.610;25.010;2023-04-09T09:40:57;101016.75;;;13.90;58.34
61682;BME280;47577;43.610;25.010;2023-04-09T09:43:39;101008.44;;;13.74;59.92
61682;BME280;47577;43.610;25.010;2023-04-09T09:46:05;101005.50;;;13.57;56.41
61682;BME280;47577;43.610;25.010;2023-04-09T09:48:32;100997.97;;;13.68;59.93
61682;BME280;47577;43.610;25.010;2023-04-09T09:50:58;100994.13;;;13.99;59.15
61682;BME280;47577;43.610;25.010;2023-04-09T09:53:25;100996.88;;;13.97;57.52
61682;BME280;47577;43.610;25.010;2023-04-09T09:55:53;100997.03;;;14.16;59.42
61682;BME280;47577;43.610;25.010;2023-04-09T09:58:23;100992.47;;;13.73;59.02
61682;BME280;47577;43.610;25.010;2023-04-09T10:00:50;100997.34;;;13.85;59.05
61682;BME280;47577;43.610;25.010;2023-04-09T10:03:23;100995.66;;;14.06;57.40
61682;BME280;47577;43.610;25.010;2023-04-09T10:05:49;100984.34;;;13.98;54.79
61682;BME280;47577;43.610;25.010;2023-04-09T10:08:16;100991.28;;;13.80;55.84
61682;BME280;47577;43.610;25.010;2023-04-09T10:10:42;100982.56;;;13.75;57.71
61682;BME280;47577;43.610;25.010;2023-04-09T10:13:17;100992.53;;;13.95;58.99
61682;BME280;47577;43.610;25.010;2023-04-09T10:15:45;100979.47;;;14.09;57.54
61682;BME280;47577;43.610;25.010;2023-04-09T10:18:11;100985.31;;;14.19;54.38
61682;BME280;47577;43.610;25.010;2023-04-09T10:20:47;100984.22;;;14.24;57.13
61682;BME280;47577;43.610;25.010;2023-04-09T10:23:20;100978.44;;;14.13;56.02
61682;BME280;47577;43.610;25.010;2023-04-09T10:25:48;100985.84;;;14.29;58.38
61682;BME280;47577;43.610;25.010;2023-04-09T10:28:18;100980.88;;;14.19;54.82
61682;BME280;47577;43.610;25.010;2023-04-09T10:30:43;100966.97;;;14.32;56.27
61682;BME280;47577;43.610;25.010;2023-04-09T10:33:14;100969.91;;;14.48;56.21
61682;BME280;47577;43.610;25.010;2023-04-09T10:35:41;100972.28;;;14.55;57.32
61682;BME280;47577;43.610;25.010;2023-04-09T10:38:13;100970.59;;;14.53;54.65
61682;BME280;47577;43.610;25.010;2023-04-09T10:40:47;100970.78;;;14.70;55.71
61682;BME280;47577;43.610;25.010;2023-04-09T10:43:14;100963.78;;;14.68;51.57
61682;BME280;47577;43.610;25.010;2023-04-09T10:45:44;100965.19;;;14.76;52.21
61682;BME280;47577;43.610;25.010;2023-04-09T10:48:13;100969.13;;;14.88;55.14
61682;BME280;47577;43.610;25.010;2023-04-09T10:50:42;100968.88;;;14.94;55.03
61682;BME280;47577;43.610;25.010;2023-04-09T10:53:21;100964.44;;;14.93;53.21
61682;BME280;47577;43.610;25.010;2023-04-09T10:55:48;100966.59;;;14.85;51.41
61682;BME280;47577;43.610;25.010;2023-04-09T10:58:18;100971.63;;;14.93;54.05
61682;BME280;47577;43.610;25.010;2023-04-09T11:00:48;100966.63;;;15.06;54.14
61682;BME280;47577;43.610;25.010;2023-04-09T11:03:25;100949.41;;;15.11;53.79
61682;BME280;47577;43.610;25.010;2023-04-09T11:05:59;100954.03;;;15.08;51.60
61682;BME280;47577;43.610;25.010;2023-04-09T11:08:30;100948.50;;;14.92;52.66
61682;BME280;47577;43.610;25.010;2023-04-09T11:10:58;100942.25;;;14.91;51.65
61682;BME280;47577;43.610;25.010;2023-04-09T11:13:26;100937.47;;;15.18;54.22
61682;BME280;47577;43.610;25.010;2023-04-09T11:15:53;100925.31;;;15.11;50.96
61682;BME280;47577;43.610;25.010;2023-04-09T11:18:21;100933.81;;;15.40;52.41
61682;BME280;47577;43.610;25.010;2023-04-09T11:20:47;100922.22;;;15.60;53.24
61682;BME280;47577;43.610;25.010;2023-04-09T11:23:14;100926.59;;;15.82;51.51
61682;BME280;47577;43.610;25.010;2023-04-09T11:25:40;100923.63;;;16.07;49.48
61682;BME280;47577;43.610;25.010;2023-04-09T11:28:06;100920.25;;;16.21;50.03
61682;BME280;47577;43.610;25.010;2023-04-09T11:30:33;100920.06;;;16.43;48.86
61682;BME280;47577;43.610;25.010;2023-04-09T11:33:00;100923.41;;;16.66;48.85
61682;BME280;47577;43.610;25.010;2023-04-09T11:35:26;100906.44;;;16.65;48.25
61682;BME280;47577;43.610;25.010;2023-04-09T11:37:52;100908.44;;;16.60;47.01
61682;BME280;47577;43.610;25.010;2023-04-09T11:40:26;100917.06;;;16.67;46.79
61682;BME280;47577;43.610;25.010;2023-04-09T11:42:54;100909.09;;;16.82;47.83
61682;BME280;47577;43.610;25.010;2023-04-09T11:45:28;100904.28;;;16.89;49.31
61682;BME280;47577;43.610;25.010;2023-04-09T11:47:55;100900.75;;;17.06;47.16
61682;BME280;47577;43.610;25.010;2023-04-09T11:50:21;100890.47;;;16.97;47.77
61682;BME280;47577;43.610;25.010;2023-04-09T11:52:48;100887.38;;;17.22;45.80
61682;BME280;47577;43.610;25.010;2023-04-09T11:55:28;100889.00;;;17.25;45.72
61682;BME280;47577;43.610;25.010;2023-04-09T11:57:58;100870.53;;;17.18;45.70
61682;BME280;47577;43.610;25.010;2023-04-09T12:00:26;100875.09;;;17.16;46.08
61682;BME280;47577;43.610;25.010;2023-04-09T12:03:02;100878.44;;;17.38;44.44
61682;BME280;47577;43.610;25.010;2023-04-09T12:05:33;100867.13;;;17.48;46.73
61682;BME280;47577;43.610;25.010;2023-04-09T12:08:05;100874.16;;;17.67;45.37
61682;BME280;47577;43.610;25.010;2023-04-09T12:10:36;100862.44;;;17.84;44.48
61682;BME280;47577;43.610;25.010;2023-04-09T12:13:07;100855.00;;;17.89;44.05
61682;BME280;47577;43.610;25.010;2023-04-09T12:15:39;100861.06;;;17.93;46.05
61682;BME280;47577;43.610;25.010;2023-04-09T12:18:10;100857.38;;;17.95;48.00
61682;BME280;47577;43.610;25.010;2023-04-09T12:20:41;100869.16;;;18.08;46.69
61682;BME280;47577;43.610;25.010;2023-04-09T12:23:09;100859.44;;;18.36;46.38
61682;BME280;47577;43.610;25.010;2023-04-09T12:25:40;100849.44;;;18.38;44.11
61682;BME280;47577;43.610;25.010;2023-04-09T12:28:08;100847.97;;;18.49;45.03
61682;BME280;47577;43.610;25.010;2023-04-09T12:30:34;100846.34;;;18.60;44.18
61682;BME280;47577;43.610;25.010;2023-04-09T12:33:01;100851.91;;;18.57;41.29
61682;BME280;47577;43.610;25.010;2023-04-09T12:35:28;100837.03;;;18.66;43.13
61682;BME280;47577;43.610;25.010;2023-04-09T12:37:53;100849.84;;;18.77;41.82
61682;BME280;47577;43.610;25.010;2023-04-09T12:40:20;100847.81;;;18.80;41.32
61682;BME280;47577;43.610;25.010;2023-04-09T12:42:46;100830.72;;;18.81;42.44
61682;BME280;47577;43.610;25.010;2023-04-09T12:45:14;100841.09;;;18.73;39.43
61682;BME280;47577;43.610;25.010;2023-04-09T12:47:41;100829.19;;;18.92;39.18
61682;BME280;47577;43.610;25.010;2023-04-09T12:50:08;100830.00;;;18.94;40.52
61682;BME280;47577;43.610;25.010;2023-04-09T12:52:34;100819.50;;;19.04;39.95